PWSweather.com
Personal Weather Stations
Station Observations
KIDNAMPA57
Canyon County Idaho, Nampa, ID 83687

Canyon County IdahoNampa, ID 83687

Lat: 43.587235, Lon: -116.49831979999999

Elevation: 2615

Station Type: Davis Vantage Pro 2

www.rockinglweather.com

High Low Average
Temperature 32.1°F0.1°C 16.3°F-8.7°C 23.9°F-4.5°C
Dew Point 18.1°F-7.7°C 10.4°F-12.0°C 13.7°F-10.2°C
Winds 11.0 mph 17.7 kmh Calm Calm 3.0 mph SSW4.8 kmh SSW
Wind Gusts 14.0 mph22.5 kmh -- 6.0 mph9.7 kmh
Humidity 79% 50% 65%
Pressure 30.45 in1031.2 mb 30.24 in1024.0 mb -
Precipitation 0.00 in0.0 mm - -
Hour Temp Dew Point Humidity Winds Wind Gusts Pressure Precip Precip Rate Daily Precip Total
12:00 AM 21.3°F-5.9°C 11.0°F-11.7°C 64% 9.0 mph NW14.5 kmh NW 11.0 mph17.7 kmh 30.24 in1024.0 mb 0.00 in0.0 mm 0.00 in0.0 mm 0.00 in0.0 mm
12:05 AM 21.2°F-6.0°C 10.9°F-11.7°C 64% 6.0 mph NW9.7 kmh NW 11.0 mph17.7 kmh 30.24 in1024.0 mb 0.00 in0.0 mm 0.00 in0.0 mm 0.00 in0.0 mm
12:10 AM 21.1°F-6.1°C 10.8°F-11.8°C 64% 6.0 mph NW9.7 kmh NW 11.0 mph17.7 kmh 30.24 in1024.0 mb 0.00 in0.0 mm 0.00 in0.0 mm 0.00 in0.0 mm
12:15 AM 21.1°F-6.1°C 10.8°F-11.8°C 64% 8.0 mph NW12.9 kmh NW 11.0 mph17.7 kmh 30.25 in1024.4 mb 0.00 in0.0 mm 0.00 in0.0 mm 0.00 in0.0 mm
12:20 AM 21.1°F-6.1°C 10.8°F-11.8°C 64% 5.0 mph NW8.0 kmh NW 9.0 mph14.5 kmh 30.25 in1024.4 mb 0.00 in0.0 mm 0.00 in0.0 mm 0.00 in0.0 mm
12:25 AM 21.0°F-6.1°C 10.8°F-11.8°C 64% 3.0 mph WNW4.8 kmh WNW 9.0 mph14.5 kmh 30.25 in1024.4 mb 0.00 in0.0 mm 0.00 in0.0 mm 0.00 in0.0 mm
12:30 AM 21.0°F-6.1°C 10.8°F-11.8°C 64% 6.0 mph NW9.7 kmh NW 9.0 mph14.5 kmh 30.26 in1024.7 mb 0.00 in0.0 mm 0.00 in0.0 mm 0.00 in0.0 mm
12:35 AM 21.0°F-6.1°C 10.8°F-11.8°C 64% 6.0 mph WNW9.7 kmh WNW 9.0 mph14.5 kmh 30.25 in1024.4 mb 0.00 in0.0 mm 0.00 in0.0 mm 0.00 in0.0 mm
12:40 AM 21.0°F-6.1°C 10.8°F-11.8°C 64% 11.0 mph NW17.7 kmh NW 13.0 mph20.9 kmh 30.26 in1024.7 mb 0.00 in0.0 mm 0.00 in0.0 mm 0.00 in0.0 mm
12:45 AM 21.0°F-6.1°C 10.8°F-11.8°C 64% 6.0 mph WNW9.7 kmh WNW 13.0 mph20.9 kmh 30.26 in1024.7 mb 0.00 in0.0 mm 0.00 in0.0 mm 0.00 in0.0 mm
12:50 AM 21.1°F-6.1°C 10.8°F-11.8°C 64% 5.0 mph WNW8.0 kmh WNW 9.0 mph14.5 kmh 30.26 in1024.7 mb 0.00 in0.0 mm 0.00 in0.0 mm 0.00 in0.0 mm
12:55 AM 21.0°F-6.1°C 10.8°F-11.8°C 64% 5.0 mph NW8.0 kmh NW 9.0 mph14.5 kmh 30.27 in1025.1 mb 0.00 in0.0 mm 0.00 in0.0 mm 0.00 in0.0 mm
01:00 AM 20.9°F-6.2°C 10.7°F-11.8°C 64% 4.0 mph W6.4 kmh W 9.0 mph14.5 kmh 30.26 in1024.7 mb 0.00 in0.0 mm 0.00 in0.0 mm 0.00 in0.0 mm
01:05 AM 20.9°F-6.2°C 10.7°F-11.8°C 64% 5.0 mph WNW8.0 kmh WNW 10.0 mph16.1 kmh 30.26 in1024.7 mb 0.00 in0.0 mm 0.00 in0.0 mm 0.00 in0.0 mm
01:10 AM 20.9°F-6.2°C 10.7°F-11.8°C 64% 8.0 mph W12.9 kmh W 13.0 mph20.9 kmh 30.27 in1025.1 mb 0.00 in0.0 mm 0.00 in0.0 mm 0.00 in0.0 mm
01:15 AM 20.9°F-6.2°C 10.7°F-11.8°C 64% 6.0 mph WNW9.7 kmh WNW 14.0 mph22.5 kmh 30.27 in1025.1 mb 0.00 in0.0 mm 0.00 in0.0 mm 0.00 in0.0 mm
01:20 AM 20.9°F-6.2°C 11.0°F-11.7°C 65% 3.0 mph WSW4.8 kmh WSW 11.0 mph17.7 kmh 30.27 in1025.1 mb 0.00 in0.0 mm 0.00 in0.0 mm 0.00 in0.0 mm
01:25 AM 20.8°F-6.2°C 10.9°F-11.7°C 65% 3.0 mph WSW4.8 kmh WSW 11.0 mph17.7 kmh 30.28 in1025.4 mb 0.00 in0.0 mm 0.00 in0.0 mm 0.00 in0.0 mm
01:30 AM 20.8°F-6.2°C 10.9°F-11.7°C 65% 3.0 mph WSW4.8 kmh WSW 11.0 mph17.7 kmh 30.27 in1025.1 mb 0.00 in0.0 mm 0.00 in0.0 mm 0.00 in0.0 mm
01:35 AM 20.7°F-6.3°C 10.8°F-11.8°C 65% 3.0 mph WSW4.8 kmh WSW 3.0 mph4.8 kmh 30.27 in1025.1 mb 0.00 in0.0 mm 0.00 in0.0 mm 0.00 in0.0 mm
01:40 AM 20.5°F-6.4°C 11.0°F-11.7°C 66% 3.0 mph WSW4.8 kmh WSW 3.0 mph4.8 kmh 30.28 in1025.4 mb 0.00 in0.0 mm 0.00 in0.0 mm 0.00 in0.0 mm
01:45 AM 20.5°F-6.4°C 11.0°F-11.7°C 66% 3.0 mph WSW4.8 kmh WSW 3.0 mph4.8 kmh 30.27 in1025.1 mb 0.00 in0.0 mm 0.00 in0.0 mm 0.00 in0.0 mm
01:50 AM 20.4°F-6.4°C 11.2°F-11.6°C 67% 3.0 mph WSW4.8 kmh WSW 3.0 mph4.8 kmh 30.28 in1025.4 mb 0.00 in0.0 mm 0.00 in0.0 mm 0.00 in0.0 mm
01:55 AM 20.3°F-6.5°C 11.1°F-11.6°C 67% 3.0 mph WSW4.8 kmh WSW 3.0 mph4.8 kmh 30.28 in1025.4 mb 0.00 in0.0 mm 0.00 in0.0 mm 0.00 in0.0 mm
02:00 AM 20.2°F-6.6°C 11.0°F-11.7°C 67% 3.0 mph WSW4.8 kmh WSW 3.0 mph4.8 kmh 30.28 in1025.4 mb 0.00 in0.0 mm 0.00 in0.0 mm 0.00 in0.0 mm
02:05 AM 20.1°F-6.6°C 10.9°F-11.7°C 67% 8.0 mph NW12.9 kmh NW 10.0 mph16.1 kmh 30.28 in1025.4 mb 0.00 in0.0 mm 0.00 in0.0 mm 0.00 in0.0 mm
02:10 AM 20.1°F-6.6°C 10.9°F-11.7°C 67% 4.0 mph WNW6.4 kmh WNW 12.0 mph19.3 kmh 30.29 in1025.7 mb 0.00 in0.0 mm 0.00 in0.0 mm 0.00 in0.0 mm
02:15 AM 20.1°F-6.6°C 11.3°F-11.5°C 68% 6.0 mph WNW9.7 kmh WNW 12.0 mph19.3 kmh 30.29 in1025.7 mb 0.00 in0.0 mm 0.00 in0.0 mm 0.00 in0.0 mm
02:20 AM 20.0°F-6.7°C 11.2°F-11.6°C 68% 4.0 mph W6.4 kmh W 10.0 mph16.1 kmh 30.29 in1025.7 mb 0.00 in0.0 mm 0.00 in0.0 mm 0.00 in0.0 mm
02:25 AM 19.9°F-6.7°C 11.1°F-11.6°C 68% 5.0 mph WNW8.0 kmh WNW 10.0 mph16.1 kmh 30.29 in1025.7 mb 0.00 in0.0 mm 0.00 in0.0 mm 0.00 in0.0 mm
02:30 AM 19.9°F-6.7°C 11.1°F-11.6°C 68% 6.0 mph WNW9.7 kmh WNW 10.0 mph16.1 kmh 30.30 in1026.1 mb 0.00 in0.0 mm 0.00 in0.0 mm 0.00 in0.0 mm
02:35 AM 19.8°F-6.8°C 11.3°F-11.5°C 69% 8.0 mph WNW12.9 kmh WNW 10.0 mph16.1 kmh 30.30 in1026.1 mb 0.00 in0.0 mm 0.00 in0.0 mm 0.00 in0.0 mm
02:40 AM 19.7°F-6.8°C 11.2°F-11.6°C 69% 4.0 mph NW6.4 kmh NW 10.0 mph16.1 kmh 30.30 in1026.1 mb 0.00 in0.0 mm 0.00 in0.0 mm 0.00 in0.0 mm
02:45 AM 19.6°F-6.9°C 11.4°F-11.4°C 70% 4.0 mph NW6.4 kmh NW 11.0 mph17.7 kmh 30.30 in1026.1 mb 0.00 in0.0 mm 0.00 in0.0 mm 0.00 in0.0 mm
02:50 AM 19.6°F-6.9°C 11.4°F-11.4°C 70% 4.0 mph NW6.4 kmh NW 9.0 mph14.5 kmh 30.30 in1026.1 mb 0.00 in0.0 mm 0.00 in0.0 mm 0.00 in0.0 mm
02:55 AM 19.5°F-6.9°C 11.3°F-11.5°C 70% 6.0 mph NW9.7 kmh NW 9.0 mph14.5 kmh 30.30 in1026.1 mb 0.00 in0.0 mm 0.00 in0.0 mm 0.00 in0.0 mm
03:00 AM 19.4°F-7.0°C 11.2°F-11.6°C 70% 4.0 mph NW6.4 kmh NW 9.0 mph14.5 kmh 30.31 in1026.4 mb 0.00 in0.0 mm 0.00 in0.0 mm 0.00 in0.0 mm
03:05 AM 19.4°F-7.0°C 11.2°F-11.6°C 70% 3.0 mph WNW4.8 kmh WNW 6.0 mph9.7 kmh 30.31 in1026.4 mb 0.00 in0.0 mm 0.00 in0.0 mm 0.00 in0.0 mm
03:10 AM 19.2°F-7.1°C 11.4°F-11.4°C 71% 3.0 mph WNW4.8 kmh WNW 6.0 mph9.7 kmh 30.31 in1026.4 mb 0.00 in0.0 mm 0.00 in0.0 mm 0.00 in0.0 mm
03:15 AM 19.1°F-7.2°C 11.6°F-11.3°C 72% 5.0 mph W8.0 kmh W 8.0 mph12.9 kmh 30.32 in1026.8 mb 0.00 in0.0 mm 0.00 in0.0 mm 0.00 in0.0 mm
03:20 AM 19.0°F-7.2°C 11.5°F-11.4°C 72% 3.0 mph W4.8 kmh W 7.0 mph11.3 kmh 30.32 in1026.8 mb 0.00 in0.0 mm 0.00 in0.0 mm 0.00 in0.0 mm
03:25 AM 18.8°F-7.3°C 11.3°F-11.5°C 72% 3.0 mph WNW4.8 kmh WNW 7.0 mph11.3 kmh 30.32 in1026.8 mb 0.00 in0.0 mm 0.00 in0.0 mm 0.00 in0.0 mm
03:30 AM 18.7°F-7.4°C 11.5°F-11.4°C 73% 4.0 mph WNW6.4 kmh WNW 7.0 mph11.3 kmh 30.32 in1026.8 mb 0.00 in0.0 mm 0.00 in0.0 mm 0.00 in0.0 mm
03:35 AM 18.7°F-7.4°C 11.5°F-11.4°C 73% 3.0 mph W4.8 kmh W 6.0 mph9.7 kmh 30.32 in1026.8 mb 0.00 in0.0 mm 0.00 in0.0 mm 0.00 in0.0 mm
03:40 AM 18.7°F-7.4°C 11.5°F-11.4°C 73% 3.0 mph WNW4.8 kmh WNW 7.0 mph11.3 kmh 30.32 in1026.8 mb 0.00 in0.0 mm 0.00 in0.0 mm 0.00 in0.0 mm
03:45 AM 18.7°F-7.4°C 11.5°F-11.4°C 73% 3.0 mph W4.8 kmh W 7.0 mph11.3 kmh 30.32 in1026.8 mb 0.00 in0.0 mm 0.00 in0.0 mm 0.00 in0.0 mm
03:50 AM 18.6°F-7.4°C 11.4°F-11.4°C 73% 3.0 mph WNW4.8 kmh WNW 5.0 mph8.0 kmh 30.33 in1027.1 mb 0.00 in0.0 mm 0.00 in0.0 mm 0.00 in0.0 mm
03:55 AM 18.6°F-7.4°C 11.4°F-11.4°C 73% 3.0 mph W4.8 kmh W 6.0 mph9.7 kmh 30.33 in1027.1 mb 0.00 in0.0 mm 0.00 in0.0 mm 0.00 in0.0 mm
04:00 AM 18.6°F-7.4°C 11.4°F-11.4°C 73% 3.0 mph W4.8 kmh W 7.0 mph11.3 kmh 30.33 in1027.1 mb 0.00 in0.0 mm 0.00 in0.0 mm 0.00 in0.0 mm
04:05 AM 18.6°F-7.4°C 11.4°F-11.4°C 73% 6.0 mph NW9.7 kmh NW 7.0 mph11.3 kmh 30.33 in1027.1 mb 0.00 in0.0 mm 0.00 in0.0 mm 0.00 in0.0 mm
04:10 AM 18.5°F-7.5°C 11.3°F-11.5°C 73% 7.0 mph NW11.3 kmh NW 8.0 mph12.9 kmh 30.32 in1026.8 mb 0.00 in0.0 mm 0.00 in0.0 mm 0.00 in0.0 mm
04:15 AM 18.5°F-7.5°C 11.3°F-11.5°C 73% 6.0 mph NNW9.7 kmh NNW 8.0 mph12.9 kmh 30.32 in1026.8 mb 0.00 in0.0 mm 0.00 in0.0 mm 0.00 in0.0 mm
04:20 AM 18.3°F-7.6°C 11.1°F-11.6°C 73% 4.0 mph NW6.4 kmh NW 6.0 mph9.7 kmh 30.33 in1027.1 mb 0.00 in0.0 mm 0.00 in0.0 mm 0.00 in0.0 mm
04:25 AM 18.1°F-7.7°C 11.2°F-11.6°C 74% 2.0 mph W3.2 kmh W 6.0 mph9.7 kmh 30.33 in1027.1 mb 0.00 in0.0 mm 0.00 in0.0 mm 0.00 in0.0 mm
04:30 AM 18.0°F-7.8°C 11.4°F-11.4°C 75% 2.0 mph W3.2 kmh W 6.0 mph9.7 kmh 30.33 in1027.1 mb 0.00 in0.0 mm 0.00 in0.0 mm 0.00 in0.0 mm
04:35 AM 17.8°F-7.9°C 11.2°F-11.6°C 75% 5.0 mph NW8.0 kmh NW 6.0 mph9.7 kmh 30.33 in1027.1 mb 0.00 in0.0 mm 0.00 in0.0 mm 0.00 in0.0 mm
04:40 AM 17.8°F-7.9°C 11.2°F-11.6°C 75% 4.0 mph NW6.4 kmh NW 6.0 mph9.7 kmh 30.33 in1027.1 mb 0.00 in0.0 mm 0.00 in0.0 mm 0.00 in0.0 mm
04:45 AM 17.8°F-7.9°C 11.2°F-11.6°C 75% 4.0 mph NW6.4 kmh NW 6.0 mph9.7 kmh 30.34 in1027.4 mb 0.00 in0.0 mm 0.00 in0.0 mm 0.00 in0.0 mm
04:50 AM 17.8°F-7.9°C 11.2°F-11.6°C 75% 4.0 mph WNW6.4 kmh WNW 4.0 mph6.4 kmh 30.34 in1027.4 mb 0.00 in0.0 mm 0.00 in0.0 mm 0.00 in0.0 mm
04:55 AM 17.8°F-7.9°C 11.2°F-11.6°C 75% 2.0 mph W3.2 kmh W 6.0 mph9.7 kmh 30.34 in1027.4 mb 0.00 in0.0 mm 0.00 in0.0 mm 0.00 in0.0 mm
05:00 AM 17.8°F-7.9°C 10.9°F-11.7°C 74% 2.0 mph WNW3.2 kmh WNW 6.0 mph9.7 kmh 30.34 in1027.4 mb 0.00 in0.0 mm 0.00 in0.0 mm 0.00 in0.0 mm
05:05 AM 17.8°F-7.9°C 10.9°F-11.7°C 74% 4.0 mph NW6.4 kmh NW 6.0 mph9.7 kmh 30.34 in1027.4 mb 0.00 in0.0 mm 0.00 in0.0 mm 0.00 in0.0 mm
05:10 AM 17.8°F-7.9°C 10.9°F-11.7°C 74% 4.0 mph NW6.4 kmh NW 6.0 mph9.7 kmh 30.35 in1027.8 mb 0.00 in0.0 mm 0.00 in0.0 mm 0.00 in0.0 mm
05:15 AM 17.7°F-7.9°C 10.8°F-11.8°C 74% 4.0 mph NW6.4 kmh NW 6.0 mph9.7 kmh 30.34 in1027.4 mb 0.00 in0.0 mm 0.00 in0.0 mm 0.00 in0.0 mm
05:20 AM 17.6°F-8.0°C 10.7°F-11.8°C 74% 3.0 mph NW4.8 kmh NW 6.0 mph9.7 kmh 30.35 in1027.8 mb 0.00 in0.0 mm 0.00 in0.0 mm 0.00 in0.0 mm
05:25 AM 17.6°F-8.0°C 10.7°F-11.8°C 74% 5.0 mph NW8.0 kmh NW 6.0 mph9.7 kmh 30.35 in1027.8 mb 0.00 in0.0 mm 0.00 in0.0 mm 0.00 in0.0 mm
05:30 AM 17.4°F-8.1°C 10.6°F-11.9°C 74% 4.0 mph NW6.4 kmh NW 6.0 mph9.7 kmh 30.35 in1027.8 mb 0.00 in0.0 mm 0.00 in0.0 mm 0.00 in0.0 mm
05:35 AM 17.4°F-8.1°C 10.6°F-11.9°C 74% 2.0 mph NW3.2 kmh NW 7.0 mph11.3 kmh 30.35 in1027.8 mb 0.00 in0.0 mm 0.00 in0.0 mm 0.00 in0.0 mm
05:40 AM 17.4°F-8.1°C 10.6°F-11.9°C 74% 4.0 mph NW6.4 kmh NW 7.0 mph11.3 kmh 30.35 in1027.8 mb 0.00 in0.0 mm 0.00 in0.0 mm 0.00 in0.0 mm
05:45 AM 17.4°F-8.1°C 10.6°F-11.9°C 74% 4.0 mph NW6.4 kmh NW 8.0 mph12.9 kmh 30.36 in1028.1 mb 0.00 in0.0 mm 0.00 in0.0 mm 0.00 in0.0 mm
05:50 AM 17.4°F-8.1°C 10.6°F-11.9°C 74% 5.0 mph NW8.0 kmh NW 7.0 mph11.3 kmh 30.36 in1028.1 mb 0.00 in0.0 mm 0.00 in0.0 mm 0.00 in0.0 mm
05:55 AM 17.4°F-8.1°C 10.6°F-11.9°C 74% 4.0 mph NW6.4 kmh NW 7.0 mph11.3 kmh 30.36 in1028.1 mb 0.00 in0.0 mm 0.00 in0.0 mm 0.00 in0.0 mm
06:00 AM 17.4°F-8.1°C 10.6°F-11.9°C 74% 6.0 mph NW9.7 kmh NW 7.0 mph11.3 kmh 30.36 in1028.1 mb 0.00 in0.0 mm 0.00 in0.0 mm 0.00 in0.0 mm
06:05 AM 17.4°F-8.1°C 10.6°F-11.9°C 74% 6.0 mph NW9.7 kmh NW 8.0 mph12.9 kmh 30.36 in1028.1 mb 0.00 in0.0 mm 0.00 in0.0 mm 0.00 in0.0 mm
06:10 AM 17.5°F-8.1°C 10.6°F-11.9°C 74% 5.0 mph NW8.0 kmh NW 8.0 mph12.9 kmh 30.36 in1028.1 mb 0.00 in0.0 mm 0.00 in0.0 mm 0.00 in0.0 mm
06:15 AM 17.5°F-8.1°C 10.6°F-11.9°C 74% 5.0 mph NW8.0 kmh NW 8.0 mph12.9 kmh 30.36 in1028.1 mb 0.00 in0.0 mm 0.00 in0.0 mm 0.00 in0.0 mm
06:20 AM 17.5°F-8.1°C 10.6°F-11.9°C 74% 3.0 mph WNW4.8 kmh WNW 4.0 mph6.4 kmh 30.37 in1028.4 mb 0.00 in0.0 mm 0.00 in0.0 mm 0.00 in0.0 mm
06:25 AM 17.4°F-8.1°C 10.6°F-11.9°C 74% 4.0 mph WNW6.4 kmh WNW 5.0 mph8.0 kmh 30.37 in1028.4 mb 0.00 in0.0 mm 0.00 in0.0 mm 0.00 in0.0 mm
06:30 AM 17.3°F-8.2°C 10.8°F-11.8°C 75% 3.0 mph WNW4.8 kmh WNW 5.0 mph8.0 kmh 30.37 in1028.4 mb 0.00 in0.0 mm 0.00 in0.0 mm 0.00 in0.0 mm
06:35 AM 17.1°F-8.3°C 10.6°F-11.9°C 75% 3.0 mph NW4.8 kmh NW 5.0 mph8.0 kmh 30.36 in1028.1 mb 0.00 in0.0 mm 0.00 in0.0 mm 0.00 in0.0 mm
06:40 AM 17.1°F-8.3°C 10.6°F-11.9°C 75% 5.0 mph NW8.0 kmh NW 5.0 mph8.0 kmh 30.37 in1028.4 mb 0.00 in0.0 mm 0.00 in0.0 mm 0.00 in0.0 mm
06:45 AM 17.1°F-8.3°C 10.6°F-11.9°C 75% 3.0 mph NW4.8 kmh NW 6.0 mph9.7 kmh 30.37 in1028.4 mb 0.00 in0.0 mm 0.00 in0.0 mm 0.00 in0.0 mm
06:50 AM 17.2°F-8.2°C 11.0°F-11.7°C 76% 3.0 mph WNW4.8 kmh WNW 5.0 mph8.0 kmh 30.37 in1028.4 mb 0.00 in0.0 mm 0.00 in0.0 mm 0.00 in0.0 mm
06:55 AM 17.3°F-8.2°C 10.8°F-11.8°C 75% 6.0 mph NW9.7 kmh NW 6.0 mph9.7 kmh 30.37 in1028.4 mb 0.00 in0.0 mm 0.00 in0.0 mm 0.00 in0.0 mm
07:00 AM 17.3°F-8.2°C 10.8°F-11.8°C 75% 4.0 mph NW6.4 kmh NW 7.0 mph11.3 kmh 30.37 in1028.4 mb 0.00 in0.0 mm 0.00 in0.0 mm 0.00 in0.0 mm
07:05 AM 17.4°F-8.1°C 10.9°F-11.7°C 75% 5.0 mph NW8.0 kmh NW 6.0 mph9.7 kmh 30.37 in1028.4 mb 0.00 in0.0 mm 0.00 in0.0 mm 0.00 in0.0 mm
07:10 AM 17.3°F-8.2°C 10.8°F-11.8°C 75% 3.0 mph NW4.8 kmh NW 6.0 mph9.7 kmh 30.38 in1028.8 mb 0.00 in0.0 mm 0.00 in0.0 mm 0.00 in0.0 mm
07:15 AM 17.3°F-8.2°C 10.8°F-11.8°C 75% 2.0 mph WNW3.2 kmh WNW 6.0 mph9.7 kmh 30.38 in1028.8 mb 0.00 in0.0 mm 0.00 in0.0 mm 0.00 in0.0 mm
07:20 AM 17.3°F-8.2°C 10.8°F-11.8°C 75% 1.0 mph WNW1.6 kmh WNW 4.0 mph6.4 kmh 30.38 in1028.8 mb 0.00 in0.0 mm 0.00 in0.0 mm 0.00 in0.0 mm
07:25 AM 17.2°F-8.2°C 11.0°F-11.7°C 76% 2.0 mph WNW3.2 kmh WNW 4.0 mph6.4 kmh 30.38 in1028.8 mb 0.00 in0.0 mm 0.00 in0.0 mm 0.00 in0.0 mm
07:30 AM 17.0°F-8.3°C 10.8°F-11.8°C 76% 2.0 mph WNW3.2 kmh WNW 4.0 mph6.4 kmh 30.38 in1028.8 mb 0.00 in0.0 mm 0.00 in0.0 mm 0.00 in0.0 mm
07:35 AM 16.9°F-8.4°C 10.7°F-11.8°C 76% 2.0 mph WNW3.2 kmh WNW 4.0 mph6.4 kmh 30.39 in1029.1 mb 0.00 in0.0 mm 0.00 in0.0 mm 0.00 in0.0 mm
07:40 AM 16.8°F-8.4°C 10.6°F-11.9°C 76% 3.0 mph WNW4.8 kmh WNW 4.0 mph6.4 kmh 30.39 in1029.1 mb 0.00 in0.0 mm 0.00 in0.0 mm 0.00 in0.0 mm
07:45 AM 16.7°F-8.5°C 10.5°F-11.9°C 76% 3.0 mph WNW4.8 kmh WNW 4.0 mph6.4 kmh 30.39 in1029.1 mb 0.00 in0.0 mm 0.00 in0.0 mm 0.00 in0.0 mm
07:50 AM 16.6°F-8.6°C 10.7°F-11.8°C 77% 2.0 mph WNW3.2 kmh WNW 4.0 mph6.4 kmh 30.39 in1029.1 mb 0.00 in0.0 mm 0.00 in0.0 mm 0.00 in0.0 mm
07:55 AM 16.5°F-8.6°C 10.6°F-11.9°C 77% 2.0 mph WNW3.2 kmh WNW 4.0 mph6.4 kmh 30.40 in1029.5 mb 0.00 in0.0 mm 0.00 in0.0 mm 0.00 in0.0 mm
08:00 AM 16.4°F-8.7°C 10.5°F-11.9°C 77% 3.0 mph WNW4.8 kmh WNW 5.0 mph8.0 kmh 30.40 in1029.5 mb 0.00 in0.0 mm 0.00 in0.0 mm 0.00 in0.0 mm
08:05 AM 16.3°F-8.7°C 10.4°F-12.0°C 77% 2.0 mph NW3.2 kmh NW 6.0 mph9.7 kmh 30.40 in1029.5 mb 0.00 in0.0 mm 0.00 in0.0 mm 0.00 in0.0 mm
08:10 AM 16.3°F-8.7°C 10.4°F-12.0°C 77% 4.0 mph NW6.4 kmh NW 6.0 mph9.7 kmh 30.40 in1029.5 mb 0.00 in0.0 mm 0.00 in0.0 mm 0.00 in0.0 mm
08:15 AM 16.4°F-8.7°C 10.8°F-11.8°C 78% 5.0 mph NW8.0 kmh NW 6.0 mph9.7 kmh 30.40 in1029.5 mb 0.00 in0.0 mm 0.00 in0.0 mm 0.00 in0.0 mm
08:20 AM 16.5°F-8.6°C 10.9°F-11.7°C 78% Calm Calm 5.0 mph8.0 kmh 30.41 in1029.8 mb 0.00 in0.0 mm 0.00 in0.0 mm 0.00 in0.0 mm
08:25 AM 16.7°F-8.5°C 11.1°F-11.6°C 78% 1.0 mph NW1.6 kmh NW 5.0 mph8.0 kmh 30.41 in1029.8 mb 0.00 in0.0 mm 0.00 in0.0 mm 0.00 in0.0 mm
08:30 AM 16.7°F-8.5°C 11.1°F-11.6°C 78% Calm Calm 5.0 mph8.0 kmh 30.41 in1029.8 mb 0.00 in0.0 mm 0.00 in0.0 mm 0.00 in0.0 mm
08:35 AM 16.7°F-8.5°C 11.1°F-11.6°C 78% 2.0 mph NW3.2 kmh NW 2.0 mph3.2 kmh 30.41 in1029.8 mb 0.00 in0.0 mm 0.00 in0.0 mm 0.00 in0.0 mm
08:40 AM 16.8°F-8.4°C 11.4°F-11.4°C 79% Calm Calm 3.0 mph4.8 kmh 30.41 in1029.8 mb 0.00 in0.0 mm 0.00 in0.0 mm 0.00 in0.0 mm
08:45 AM 17.0°F-8.3°C 11.6°F-11.3°C 79% Calm Calm 4.0 mph6.4 kmh 30.41 in1029.8 mb 0.00 in0.0 mm 0.00 in0.0 mm 0.00 in0.0 mm
08:50 AM 17.2°F-8.2°C 11.8°F-11.2°C 79% 2.0 mph WNW3.2 kmh WNW 5.0 mph8.0 kmh 30.42 in1030.1 mb 0.00 in0.0 mm 0.00 in0.0 mm 0.00 in0.0 mm
08:55 AM 17.4°F-8.1°C 12.0°F-11.1°C 79% 1.0 mph WNW1.6 kmh WNW 5.0 mph8.0 kmh 30.42 in1030.1 mb 0.00 in0.0 mm 0.00 in0.0 mm 0.00 in0.0 mm
09:00 AM 17.7°F-7.9°C 12.0°F-11.1°C 78% 4.0 mph NW6.4 kmh NW 5.0 mph8.0 kmh 30.42 in1030.1 mb 0.00 in0.0 mm 0.00 in0.0 mm 0.00 in0.0 mm
09:05 AM 17.9°F-7.8°C 11.9°F-11.2°C 77% 2.0 mph NW3.2 kmh NW 5.0 mph8.0 kmh 30.42 in1030.1 mb 0.00 in0.0 mm 0.00 in0.0 mm 0.00 in0.0 mm
09:10 AM 18.2°F-7.7°C 12.2°F-11.0°C 77% 3.0 mph NW4.8 kmh NW 6.0 mph9.7 kmh 30.43 in1030.5 mb 0.00 in0.0 mm 0.00 in0.0 mm 0.00 in0.0 mm
09:15 AM 18.9°F-7.3°C 12.3°F-10.9°C 75% 3.0 mph NW4.8 kmh NW 6.0 mph9.7 kmh 30.43 in1030.5 mb 0.00 in0.0 mm 0.00 in0.0 mm 0.00 in0.0 mm
09:20 AM 19.3°F-7.1°C 12.4°F-10.9°C 74% 3.0 mph NW4.8 kmh NW 4.0 mph6.4 kmh 30.43 in1030.5 mb 0.00 in0.0 mm 0.00 in0.0 mm 0.00 in0.0 mm
09:25 AM 19.6°F-6.9°C 12.4°F-10.9°C 73% 5.0 mph NW8.0 kmh NW 5.0 mph8.0 kmh 30.43 in1030.5 mb 0.00 in0.0 mm 0.00 in0.0 mm 0.00 in0.0 mm
09:30 AM 19.9°F-6.7°C 12.7°F-10.7°C 73% 3.0 mph NW4.8 kmh NW 5.0 mph8.0 kmh 30.43 in1030.5 mb 0.00 in0.0 mm 0.00 in0.0 mm 0.00 in0.0 mm
09:35 AM 20.2°F-6.6°C 12.6°F-10.8°C 72% 3.0 mph NW4.8 kmh NW 4.0 mph6.4 kmh 30.43 in1030.5 mb 0.00 in0.0 mm 0.00 in0.0 mm 0.00 in0.0 mm
09:40 AM 20.6°F-6.3°C 13.0°F-10.6°C 72% Calm Calm 4.0 mph6.4 kmh 30.43 in1030.5 mb 0.00 in0.0 mm 0.00 in0.0 mm 0.00 in0.0 mm
09:45 AM 20.6°F-6.3°C 13.0°F-10.6°C 72% Calm Calm 4.0 mph6.4 kmh 30.43 in1030.5 mb 0.00 in0.0 mm 0.00 in0.0 mm 0.00 in0.0 mm
09:50 AM 21.2°F-6.0°C 13.3°F-10.4°C 71% 3.0 mph NW4.8 kmh NW 4.0 mph6.4 kmh 30.43 in1030.5 mb 0.00 in0.0 mm 0.00 in0.0 mm 0.00 in0.0 mm
09:55 AM 21.6°F-5.8°C 13.3°F-10.4°C 70% 2.0 mph NW3.2 kmh NW 5.0 mph8.0 kmh 30.43 in1030.5 mb 0.00 in0.0 mm 0.00 in0.0 mm 0.00 in0.0 mm
10:00 AM 21.8°F-5.7°C 13.5°F-10.3°C 70% 4.0 mph NW6.4 kmh NW 6.0 mph9.7 kmh 30.43 in1030.5 mb 0.00 in0.0 mm 0.00 in0.0 mm 0.00 in0.0 mm
10:05 AM 22.2°F-5.4°C 13.6°F-10.2°C 69% Calm Calm 5.0 mph8.0 kmh 30.44 in1030.8 mb 0.00 in0.0 mm 0.00 in0.0 mm 0.00 in0.0 mm
10:10 AM 22.3°F-5.4°C 13.4°F-10.3°C 68% 2.0 mph NW3.2 kmh NW 5.0 mph8.0 kmh 30.44 in1030.8 mb 0.00 in0.0 mm 0.00 in0.0 mm 0.00 in0.0 mm
10:15 AM 22.8°F-5.1°C 13.2°F-10.4°C 66% 2.0 mph NW3.2 kmh NW 5.0 mph8.0 kmh 30.44 in1030.8 mb 0.00 in0.0 mm 0.00 in0.0 mm 0.00 in0.0 mm
10:20 AM 22.9°F-5.1°C 13.3°F-10.4°C 66% 3.0 mph W4.8 kmh W 5.0 mph8.0 kmh 30.44 in1030.8 mb 0.00 in0.0 mm 0.00 in0.0 mm 0.00 in0.0 mm
10:25 AM 22.8°F-5.1°C 13.2°F-10.4°C 66% 4.0 mph NNW6.4 kmh NNW 5.0 mph8.0 kmh 30.44 in1030.8 mb 0.00 in0.0 mm 0.00 in0.0 mm 0.00 in0.0 mm
10:30 AM 23.3°F-4.8°C 13.6°F-10.2°C 66% 3.0 mph NW4.8 kmh NW 6.0 mph9.7 kmh 30.44 in1030.8 mb 0.00 in0.0 mm 0.00 in0.0 mm 0.00 in0.0 mm
10:35 AM 23.8°F-4.6°C 13.8°F-10.1°C 65% 4.0 mph NW6.4 kmh NW 5.0 mph8.0 kmh 30.44 in1030.8 mb 0.00 in0.0 mm 0.00 in0.0 mm 0.00 in0.0 mm
10:40 AM 23.9°F-4.5°C 13.5°F-10.3°C 64% Calm Calm 6.0 mph9.7 kmh 30.44 in1030.8 mb 0.00 in0.0 mm 0.00 in0.0 mm 0.00 in0.0 mm
10:45 AM 24.2°F-4.3°C 13.1°F-10.5°C 62% 3.0 mph NW4.8 kmh NW 6.0 mph9.7 kmh 30.44 in1030.8 mb 0.00 in0.0 mm 0.00 in0.0 mm 0.00 in0.0 mm
10:50 AM 24.3°F-4.3°C 13.5°F-10.3°C 63% 3.0 mph NNW4.8 kmh NNW 5.0 mph8.0 kmh 30.44 in1030.8 mb 0.00 in0.0 mm 0.00 in0.0 mm 0.00 in0.0 mm
10:55 AM 24.3°F-4.3°C 13.5°F-10.3°C 63% 4.0 mph N6.4 kmh N 6.0 mph9.7 kmh 30.44 in1030.8 mb 0.00 in0.0 mm 0.00 in0.0 mm 0.00 in0.0 mm
11:00 AM 25.0°F-3.9°C 14.2°F-9.9°C 63% 4.0 mph N6.4 kmh N 6.0 mph9.7 kmh 30.44 in1030.8 mb 0.00 in0.0 mm 0.00 in0.0 mm 0.00 in0.0 mm
11:05 AM 25.1°F-3.8°C 13.9°F-10.1°C 62% 4.0 mph N6.4 kmh N 4.0 mph6.4 kmh 30.44 in1030.8 mb 0.00 in0.0 mm 0.00 in0.0 mm 0.00 in0.0 mm
11:10 AM 25.0°F-3.9°C 13.1°F-10.5°C 60% Calm Calm 5.0 mph8.0 kmh 30.44 in1030.8 mb 0.00 in0.0 mm 0.00 in0.0 mm 0.00 in0.0 mm
11:15 AM 25.0°F-3.9°C 14.6°F-9.7°C 64% 1.0 mph NNW1.6 kmh NNW 5.0 mph8.0 kmh 30.44 in1030.8 mb 0.00 in0.0 mm 0.00 in0.0 mm 0.00 in0.0 mm
11:20 AM 25.8°F-3.4°C 15.0°F-9.4°C 63% 4.0 mph NW6.4 kmh NW 5.0 mph8.0 kmh 30.44 in1030.8 mb 0.00 in0.0 mm 0.00 in0.0 mm 0.00 in0.0 mm
11:25 AM 26.1°F-3.3°C 13.4°F-10.3°C 58% 2.0 mph NNW3.2 kmh NNW 6.0 mph9.7 kmh 30.45 in1031.2 mb 0.00 in0.0 mm 0.00 in0.0 mm 0.00 in0.0 mm
11:30 AM 26.2°F-3.2°C 14.2°F-9.9°C 60% 2.0 mph NNE3.2 kmh NNE 6.0 mph9.7 kmh 30.45 in1031.2 mb 0.00 in0.0 mm 0.00 in0.0 mm 0.00 in0.0 mm
11:35 AM 26.3°F-3.2°C 13.2°F-10.4°C 57% 2.0 mph N3.2 kmh N 5.0 mph8.0 kmh 30.44 in1030.8 mb 0.00 in0.0 mm 0.00 in0.0 mm 0.00 in0.0 mm
11:40 AM 26.7°F-2.9°C 14.3°F-9.8°C 59% 3.0 mph NW4.8 kmh NW 7.0 mph11.3 kmh 30.45 in1031.2 mb 0.00 in0.0 mm 0.00 in0.0 mm 0.00 in0.0 mm
11:45 AM 26.7°F-2.9°C 14.3°F-9.8°C 59% 5.0 mph NW8.0 kmh NW 7.0 mph11.3 kmh 30.45 in1031.2 mb 0.00 in0.0 mm 0.00 in0.0 mm 0.00 in0.0 mm
11:50 AM 26.8°F-2.9°C 12.8°F-10.7°C 55% 1.0 mph NW1.6 kmh NW 6.0 mph9.7 kmh 30.45 in1031.2 mb 0.00 in0.0 mm 0.00 in0.0 mm 0.00 in0.0 mm
11:55 AM 27.1°F-2.7°C 14.3°F-9.8°C 58% 5.0 mph N8.0 kmh N 7.0 mph11.3 kmh 30.44 in1030.8 mb 0.00 in0.0 mm 0.00 in0.0 mm 0.00 in0.0 mm
12:00 PM 27.5°F-2.5°C 14.7°F-9.6°C 58% 3.0 mph N4.8 kmh N 7.0 mph11.3 kmh 30.44 in1030.8 mb 0.00 in0.0 mm 0.00 in0.0 mm 0.00 in0.0 mm
12:05 PM 27.5°F-2.5°C 14.7°F-9.6°C 58% 3.0 mph NNW4.8 kmh NNW 7.0 mph11.3 kmh 30.44 in1030.8 mb 0.00 in0.0 mm 0.00 in0.0 mm 0.00 in0.0 mm
12:10 PM 28.3°F-2.1°C 15.0°F-9.4°C 57% 4.0 mph N6.4 kmh N 8.0 mph12.9 kmh 30.44 in1030.8 mb 0.00 in0.0 mm 0.00 in0.0 mm 0.00 in0.0 mm
12:15 PM 27.9°F-2.3°C 13.4°F-10.3°C 54% Calm Calm 8.0 mph12.9 kmh 30.44 in1030.8 mb 0.00 in0.0 mm 0.00 in0.0 mm 0.00 in0.0 mm
12:20 PM 28.4°F-2.0°C 14.3°F-9.8°C 55% 1.0 mph NNW1.6 kmh NNW 7.0 mph11.3 kmh 30.44 in1030.8 mb 0.00 in0.0 mm 0.00 in0.0 mm 0.00 in0.0 mm
12:25 PM 28.5°F-1.9°C 14.8°F-9.6°C 56% 4.0 mph NNW6.4 kmh NNW 7.0 mph11.3 kmh 30.43 in1030.5 mb 0.00 in0.0 mm 0.00 in0.0 mm 0.00 in0.0 mm
12:30 PM 29.3°F-1.5°C 14.7°F-9.6°C 54% Calm Calm 7.0 mph11.3 kmh 30.43 in1030.5 mb 0.00 in0.0 mm 0.00 in0.0 mm 0.00 in0.0 mm
12:35 PM 29.2°F-1.6°C 14.2°F-9.9°C 53% 4.0 mph N6.4 kmh N 5.0 mph8.0 kmh 30.43 in1030.5 mb 0.00 in0.0 mm 0.00 in0.0 mm 0.00 in0.0 mm
12:40 PM 29.3°F-1.5°C 14.7°F-9.6°C 54% 3.0 mph N4.8 kmh N 6.0 mph9.7 kmh 30.43 in1030.5 mb 0.00 in0.0 mm 0.00 in0.0 mm 0.00 in0.0 mm
12:45 PM 29.1°F-1.6°C 14.1°F-9.9°C 53% 3.0 mph ENE4.8 kmh ENE 6.0 mph9.7 kmh 30.43 in1030.5 mb 0.00 in0.0 mm 0.00 in0.0 mm 0.00 in0.0 mm
12:50 PM 29.2°F-1.6°C 15.1°F-9.4°C 55% Calm Calm 3.0 mph4.8 kmh 30.42 in1030.1 mb 0.00 in0.0 mm 0.00 in0.0 mm 0.00 in0.0 mm
12:55 PM 29.9°F-1.2°C 15.7°F-9.1°C 55% 2.0 mph NW3.2 kmh NW 6.0 mph9.7 kmh 30.42 in1030.1 mb 0.00 in0.0 mm 0.00 in0.0 mm 0.00 in0.0 mm
01:00 PM 29.9°F-1.2°C 15.7°F-9.1°C 55% 2.0 mph NW3.2 kmh NW 6.0 mph9.7 kmh 30.42 in1030.1 mb 0.00 in0.0 mm 0.00 in0.0 mm 0.00 in0.0 mm
01:05 PM 28.8°F-1.8°C 15.1°F-9.4°C 56% 2.0 mph WNW3.2 kmh WNW 6.0 mph9.7 kmh 30.42 in1030.1 mb 0.00 in0.0 mm 0.00 in0.0 mm 0.00 in0.0 mm
01:10 PM 28.2°F-2.1°C 13.7°F-10.2°C 54% 4.0 mph WNW6.4 kmh WNW 6.0 mph9.7 kmh 30.42 in1030.1 mb 0.00 in0.0 mm 0.00 in0.0 mm 0.00 in0.0 mm
01:15 PM 29.5°F-1.4°C 15.3°F-9.3°C 55% Calm Calm 6.0 mph9.7 kmh 30.42 in1030.1 mb 0.00 in0.0 mm 0.00 in0.0 mm 0.00 in0.0 mm
01:20 PM 29.9°F-1.2°C 16.1°F-8.8°C 56% 1.0 mph N1.6 kmh N 5.0 mph8.0 kmh 30.42 in1030.1 mb 0.00 in0.0 mm 0.00 in0.0 mm 0.00 in0.0 mm
01:25 PM 30.0°F-1.1°C 15.4°F-9.2°C 54% 3.0 mph N4.8 kmh N 7.0 mph11.3 kmh 30.41 in1029.8 mb 0.00 in0.0 mm 0.00 in0.0 mm 0.00 in0.0 mm
01:30 PM 30.3°F-0.9°C 15.2°F-9.3°C 53% Calm Calm 7.0 mph11.3 kmh 30.41 in1029.8 mb 0.00 in0.0 mm 0.00 in0.0 mm 0.00 in0.0 mm
01:35 PM 29.8°F-1.2°C 14.3°F-9.8°C 52% Calm Calm 5.0 mph8.0 kmh 30.41 in1029.8 mb 0.00 in0.0 mm 0.00 in0.0 mm 0.00 in0.0 mm
01:40 PM 30.1°F-1.1°C 15.9°F-8.9°C 55% 4.0 mph N6.4 kmh N 9.0 mph14.5 kmh 30.41 in1029.8 mb 0.00 in0.0 mm 0.00 in0.0 mm 0.00 in0.0 mm
01:45 PM 30.5°F-0.8°C 15.9°F-8.9°C 54% Calm Calm 9.0 mph14.5 kmh 30.41 in1029.8 mb 0.00 in0.0 mm 0.00 in0.0 mm 0.00 in0.0 mm
01:50 PM 29.7°F-1.3°C 14.7°F-9.6°C 53% 2.0 mph N3.2 kmh N 3.0 mph4.8 kmh 30.41 in1029.8 mb 0.00 in0.0 mm 0.00 in0.0 mm 0.00 in0.0 mm
01:55 PM 30.2°F-1.0°C 15.6°F-9.1°C 54% Calm Calm 5.0 mph8.0 kmh 30.41 in1029.8 mb 0.00 in0.0 mm 0.00 in0.0 mm 0.00 in0.0 mm
02:00 PM 30.7°F-0.7°C 15.6°F-9.1°C 53% Calm Calm 5.0 mph8.0 kmh 30.41 in1029.8 mb 0.00 in0.0 mm 0.00 in0.0 mm 0.00 in0.0 mm
02:05 PM 30.7°F-0.7°C 15.6°F-9.1°C 53% Calm Calm 4.0 mph6.4 kmh 30.40 in1029.5 mb 0.00 in0.0 mm 0.00 in0.0 mm 0.00 in0.0 mm
02:10 PM 31.2°F-0.4°C 16.1°F-8.8°C 53% 1.0 mph N1.6 kmh N 5.0 mph8.0 kmh 30.40 in1029.5 mb 0.00 in0.0 mm 0.00 in0.0 mm 0.00 in0.0 mm
02:15 PM 30.4°F-0.9°C 15.3°F-9.3°C 53% 4.0 mph WNW6.4 kmh WNW 5.0 mph8.0 kmh 30.40 in1029.5 mb 0.00 in0.0 mm 0.00 in0.0 mm 0.00 in0.0 mm
02:20 PM 30.3°F-0.9°C 14.8°F-9.6°C 52% 4.0 mph SW6.4 kmh SW 5.0 mph8.0 kmh 30.40 in1029.5 mb 0.00 in0.0 mm 0.00 in0.0 mm 0.00 in0.0 mm
02:25 PM 30.6°F-0.8°C 16.4°F-8.7°C 55% 2.0 mph N3.2 kmh N 6.0 mph9.7 kmh 30.40 in1029.5 mb 0.00 in0.0 mm 0.00 in0.0 mm 0.00 in0.0 mm
02:30 PM 32.0°F0.0°C 16.8°F-8.4°C 53% 2.0 mph N3.2 kmh N 6.0 mph9.7 kmh 30.40 in1029.5 mb 0.00 in0.0 mm 0.00 in0.0 mm 0.00 in0.0 mm
02:35 PM 31.8°F-0.1°C 16.2°F-8.8°C 52% 1.0 mph N1.6 kmh N 4.0 mph6.4 kmh 30.40 in1029.5 mb 0.00 in0.0 mm 0.00 in0.0 mm 0.00 in0.0 mm
02:40 PM 32.1°F0.1°C 16.0°F-8.9°C 51% 1.0 mph NE1.6 kmh NE 4.0 mph6.4 kmh 30.39 in1029.1 mb 0.00 in0.0 mm 0.00 in0.0 mm 0.00 in0.0 mm
02:45 PM 32.0°F0.0°C 15.9°F-8.9°C 51% Calm Calm 5.0 mph8.0 kmh 30.40 in1029.5 mb 0.00 in0.0 mm 0.00 in0.0 mm 0.00 in0.0 mm
02:50 PM 31.7°F-0.2°C 15.2°F-9.3°C 50% 2.0 mph NE3.2 kmh NE 4.0 mph6.4 kmh 30.39 in1029.1 mb 0.00 in0.0 mm 0.00 in0.0 mm 0.00 in0.0 mm
02:55 PM 31.6°F-0.2°C 15.1°F-9.4°C 50% 1.0 mph NE1.6 kmh NE 4.0 mph6.4 kmh 30.39 in1029.1 mb 0.00 in0.0 mm 0.00 in0.0 mm 0.00 in0.0 mm
03:00 PM 31.9°F-0.1°C 15.8°F-9.0°C 51% Calm Calm 5.0 mph8.0 kmh 30.39 in1029.1 mb 0.00 in0.0 mm 0.00 in0.0 mm 0.00 in0.0 mm
03:05 PM 31.6°F-0.2°C 15.1°F-9.4°C 50% Calm Calm 5.0 mph8.0 kmh 30.39 in1029.1 mb 0.00 in0.0 mm 0.00 in0.0 mm 0.00 in0.0 mm
03:10 PM 32.0°F0.0°C 15.9°F-8.9°C 51% Calm Calm 5.0 mph8.0 kmh 30.39 in1029.1 mb 0.00 in0.0 mm 0.00 in0.0 mm 0.00 in0.0 mm
03:15 PM 32.0°F0.0°C 15.9°F-8.9°C 51% 1.0 mph NE1.6 kmh NE 7.0 mph11.3 kmh 30.39 in1029.1 mb 0.00 in0.0 mm 0.00 in0.0 mm 0.00 in0.0 mm
03:20 PM 31.4°F-0.3°C 14.9°F-9.5°C 50% 1.0 mph NE1.6 kmh NE 3.0 mph4.8 kmh 30.39 in1029.1 mb 0.00 in0.0 mm 0.00 in0.0 mm 0.00 in0.0 mm
03:25 PM 30.7°F-0.7°C 14.7°F-9.6°C 51% Calm Calm 3.0 mph4.8 kmh 30.39 in1029.1 mb 0.00 in0.0 mm 0.00 in0.0 mm 0.00 in0.0 mm
03:30 PM 31.3°F-0.4°C 16.2°F-8.8°C 53% 2.0 mph ENE3.2 kmh ENE 4.0 mph6.4 kmh 30.39 in1029.1 mb 0.00 in0.0 mm 0.00 in0.0 mm 0.00 in0.0 mm
03:35 PM 31.1°F-0.5°C 15.5°F-9.2°C 52% Calm Calm 4.0 mph6.4 kmh 30.39 in1029.1 mb 0.00 in0.0 mm 0.00 in0.0 mm 0.00 in0.0 mm
03:40 PM 31.1°F-0.5°C 16.0°F-8.9°C 53% 1.0 mph ENE1.6 kmh ENE 4.0 mph6.4 kmh 30.38 in1028.8 mb 0.00 in0.0 mm 0.00 in0.0 mm 0.00 in0.0 mm
03:45 PM 31.7°F-0.2°C 17.0°F-8.3°C 54% 4.0 mph NNW6.4 kmh NNW 5.0 mph8.0 kmh 30.38 in1028.8 mb 0.00 in0.0 mm 0.00 in0.0 mm 0.00 in0.0 mm
03:50 PM 31.8°F-0.1°C 16.2°F-8.8°C 52% 3.0 mph NW4.8 kmh NW 5.0 mph8.0 kmh 30.38 in1028.8 mb 0.00 in0.0 mm 0.00 in0.0 mm 0.00 in0.0 mm
03:55 PM 31.6°F-0.2°C 16.0°F-8.9°C 52% Calm Calm 5.0 mph8.0 kmh 30.38 in1028.8 mb 0.00 in0.0 mm 0.00 in0.0 mm 0.00 in0.0 mm
04:00 PM 30.6°F-0.8°C 15.1°F-9.4°C 52% Calm Calm 5.0 mph8.0 kmh 30.38 in1028.8 mb 0.00 in0.0 mm 0.00 in0.0 mm 0.00 in0.0 mm
04:05 PM 30.8°F-0.7°C 15.7°F-9.1°C 53% 2.0 mph NE3.2 kmh NE 3.0 mph4.8 kmh 30.38 in1028.8 mb 0.00 in0.0 mm 0.00 in0.0 mm 0.00 in0.0 mm
04:10 PM 30.9°F-0.6°C 15.8°F-9.0°C 53% 1.0 mph NE1.6 kmh NE 3.0 mph4.8 kmh 30.38 in1028.8 mb 0.00 in0.0 mm 0.00 in0.0 mm 0.00 in0.0 mm
04:15 PM 31.3°F-0.4°C 16.6°F-8.6°C 54% 4.0 mph NE6.4 kmh NE 4.0 mph6.4 kmh 30.38 in1028.8 mb 0.00 in0.0 mm 0.00 in0.0 mm 0.00 in0.0 mm
04:20 PM 31.3°F-0.4°C 16.2°F-8.8°C 53% Calm Calm 5.0 mph8.0 kmh 30.38 in1028.8 mb 0.00 in0.0 mm 0.00 in0.0 mm 0.00 in0.0 mm
04:25 PM 30.5°F-0.8°C 15.0°F-9.4°C 52% Calm Calm 5.0 mph8.0 kmh 30.38 in1028.8 mb 0.00 in0.0 mm 0.00 in0.0 mm 0.00 in0.0 mm
04:30 PM 30.5°F-0.8°C 15.4°F-9.2°C 53% Calm Calm 5.0 mph8.0 kmh 30.38 in1028.8 mb 0.00 in0.0 mm 0.00 in0.0 mm 0.00 in0.0 mm
04:35 PM 30.4°F-0.9°C 14.9°F-9.5°C 52% Calm Calm 1.0 mph1.6 kmh 30.38 in1028.8 mb 0.00 in0.0 mm 0.00 in0.0 mm 0.00 in0.0 mm
04:40 PM 30.9°F-0.6°C 15.8°F-9.0°C 53% 1.0 mph NE1.6 kmh NE 2.0 mph3.2 kmh 30.38 in1028.8 mb 0.00 in0.0 mm 0.00 in0.0 mm 0.00 in0.0 mm
04:45 PM 31.2°F-0.4°C 16.1°F-8.8°C 53% 2.0 mph NE3.2 kmh NE 4.0 mph6.4 kmh 30.38 in1028.8 mb 0.00 in0.0 mm 0.00 in0.0 mm 0.00 in0.0 mm
04:50 PM 31.2°F-0.4°C 15.6°F-9.1°C 52% Calm Calm 4.0 mph6.4 kmh 30.38 in1028.8 mb 0.00 in0.0 mm 0.00 in0.0 mm 0.00 in0.0 mm
04:55 PM 31.1°F-0.5°C 15.5°F-9.2°C 52% 2.0 mph NE3.2 kmh NE 4.0 mph6.4 kmh 30.38 in1028.8 mb 0.00 in0.0 mm 0.00 in0.0 mm 0.00 in0.0 mm
05:00 PM 30.9°F-0.6°C 15.4°F-9.2°C 52% Calm Calm 4.0 mph6.4 kmh 30.37 in1028.4 mb 0.00 in0.0 mm 0.00 in0.0 mm 0.00 in0.0 mm
05:05 PM 30.9°F-0.6°C 15.8°F-9.0°C 53% 1.0 mph ENE1.6 kmh ENE 3.0 mph4.8 kmh 30.37 in1028.4 mb 0.00 in0.0 mm 0.00 in0.0 mm 0.00 in0.0 mm
05:10 PM 30.8°F-0.7°C 15.7°F-9.1°C 53% Calm Calm 3.0 mph4.8 kmh 30.37 in1028.4 mb 0.00 in0.0 mm 0.00 in0.0 mm 0.00 in0.0 mm
05:15 PM 30.6°F-0.8°C 15.5°F-9.2°C 53% 1.0 mph ENE1.6 kmh ENE 3.0 mph4.8 kmh 30.37 in1028.4 mb 0.00 in0.0 mm 0.00 in0.0 mm 0.00 in0.0 mm
05:20 PM 30.6°F-0.8°C 15.5°F-9.2°C 53% 1.0 mph ENE1.6 kmh ENE 2.0 mph3.2 kmh 30.37 in1028.4 mb 0.00 in0.0 mm 0.00 in0.0 mm 0.00 in0.0 mm
05:25 PM 30.5°F-0.8°C 15.4°F-9.2°C 53% Calm Calm 2.0 mph3.2 kmh 30.37 in1028.4 mb 0.00 in0.0 mm 0.00 in0.0 mm 0.00 in0.0 mm
05:30 PM 30.5°F-0.8°C 15.0°F-9.4°C 52% Calm Calm 2.0 mph3.2 kmh 30.37 in1028.4 mb 0.00 in0.0 mm 0.00 in0.0 mm 0.00 in0.0 mm
05:35 PM 30.4°F-0.9°C 15.3°F-9.3°C 53% Calm Calm 1.0 mph1.6 kmh 30.36 in1028.1 mb 0.00 in0.0 mm 0.00 in0.0 mm 0.00 in0.0 mm
05:40 PM 30.3°F-0.9°C 14.8°F-9.6°C 52% Calm Calm 2.0 mph3.2 kmh 30.36 in1028.1 mb 0.00 in0.0 mm 0.00 in0.0 mm 0.00 in0.0 mm
05:45 PM 30.3°F-0.9°C 14.8°F-9.6°C 52% Calm Calm 2.0 mph3.2 kmh 30.36 in1028.1 mb 0.00 in0.0 mm 0.00 in0.0 mm 0.00 in0.0 mm
05:50 PM 30.2°F-1.0°C 14.3°F-9.8°C 51% Calm Calm -- 30.36 in1028.1 mb 0.00 in0.0 mm 0.00 in0.0 mm 0.00 in0.0 mm
05:55 PM 30.0°F-1.1°C 14.5°F-9.7°C 52% Calm Calm -- 30.37 in1028.4 mb 0.00 in0.0 mm 0.00 in0.0 mm 0.00 in0.0 mm
06:05 PM 29.6°F-1.3°C 14.6°F-9.7°C 53% Calm Calm 1.0 mph1.6 kmh 30.36 in1028.1 mb 0.00 in0.0 mm 0.00 in0.0 mm 0.00 in0.0 mm
06:10 PM 29.4°F-1.4°C 14.8°F-9.6°C 54% 1.0 mph ENE1.6 kmh ENE 1.0 mph1.6 kmh 30.36 in1028.1 mb 0.00 in0.0 mm 0.00 in0.0 mm 0.00 in0.0 mm
06:15 PM 29.2°F-1.6°C 14.6°F-9.7°C 54% Calm Calm 1.0 mph1.6 kmh 30.36 in1028.1 mb 0.00 in0.0 mm 0.00 in0.0 mm 0.00 in0.0 mm
06:20 PM 28.8°F-1.8°C 15.5°F-9.2°C 57% 1.0 mph ENE1.6 kmh ENE 1.0 mph1.6 kmh 30.36 in1028.1 mb 0.00 in0.0 mm 0.00 in0.0 mm 0.00 in0.0 mm
06:25 PM 28.5°F-1.9°C 16.0°F-8.9°C 59% Calm Calm 1.0 mph1.6 kmh 30.36 in1028.1 mb 0.00 in0.0 mm 0.00 in0.0 mm 0.00 in0.0 mm
06:30 PM 28.3°F-2.1°C 15.8°F-9.0°C 59% Calm Calm 1.0 mph1.6 kmh 30.36 in1028.1 mb 0.00 in0.0 mm 0.00 in0.0 mm 0.00 in0.0 mm
06:35 PM 28.0°F-2.2°C 15.9°F-8.9°C 60% Calm Calm -- 30.36 in1028.1 mb 0.00 in0.0 mm 0.00 in0.0 mm 0.00 in0.0 mm
06:40 PM 27.6°F-2.4°C 16.7°F-8.5°C 63% Calm Calm -- 30.36 in1028.1 mb 0.00 in0.0 mm 0.00 in0.0 mm 0.00 in0.0 mm
06:45 PM 27.3°F-2.6°C 16.4°F-8.7°C 63% Calm Calm -- 30.36 in1028.1 mb 0.00 in0.0 mm 0.00 in0.0 mm 0.00 in0.0 mm
06:50 PM 27.1°F-2.7°C 16.6°F-8.6°C 64% Calm Calm -- 30.36 in1028.1 mb 0.00 in0.0 mm 0.00 in0.0 mm 0.00 in0.0 mm
06:55 PM 26.9°F-2.8°C 16.7°F-8.5°C 65% Calm Calm -- 30.36 in1028.1 mb 0.00 in0.0 mm 0.00 in0.0 mm 0.00 in0.0 mm
07:00 PM 26.7°F-2.9°C 16.9°F-8.4°C 66% Calm Calm -- 30.37 in1028.4 mb 0.00 in0.0 mm 0.00 in0.0 mm 0.00 in0.0 mm
07:05 PM 26.5°F-3.1°C 16.7°F-8.5°C 66% Calm Calm -- 30.37 in1028.4 mb 0.00 in0.0 mm 0.00 in0.0 mm 0.00 in0.0 mm
07:10 PM 26.5°F-3.1°C 16.0°F-8.9°C 64% Calm Calm 1.0 mph1.6 kmh 30.37 in1028.4 mb 0.00 in0.0 mm 0.00 in0.0 mm 0.00 in0.0 mm
07:15 PM 26.5°F-3.1°C 16.7°F-8.5°C 66% Calm Calm 1.0 mph1.6 kmh 30.37 in1028.4 mb 0.00 in0.0 mm 0.00 in0.0 mm 0.00 in0.0 mm
07:20 PM 26.3°F-3.2°C 16.5°F-8.6°C 66% Calm Calm 1.0 mph1.6 kmh 30.37 in1028.4 mb 0.00 in0.0 mm 0.00 in0.0 mm 0.00 in0.0 mm
07:25 PM 26.2°F-3.2°C 16.4°F-8.7°C 66% 1.0 mph ENE1.6 kmh ENE 2.0 mph3.2 kmh 30.37 in1028.4 mb 0.00 in0.0 mm 0.00 in0.0 mm 0.00 in0.0 mm
07:30 PM 26.3°F-3.2°C 16.2°F-8.8°C 65% 1.0 mph ENE1.6 kmh ENE 3.0 mph4.8 kmh 30.36 in1028.1 mb 0.00 in0.0 mm 0.00 in0.0 mm 0.00 in0.0 mm
07:35 PM 26.3°F-3.2°C 15.8°F-9.0°C 64% 1.0 mph ENE1.6 kmh ENE 3.0 mph4.8 kmh 30.36 in1028.1 mb 0.00 in0.0 mm 0.00 in0.0 mm 0.00 in0.0 mm
07:40 PM 26.4°F-3.1°C 15.9°F-8.9°C 64% 1.0 mph ENE1.6 kmh ENE 3.0 mph4.8 kmh 30.36 in1028.1 mb 0.00 in0.0 mm 0.00 in0.0 mm 0.00 in0.0 mm
07:45 PM 26.3°F-3.2°C 15.4°F-9.2°C 63% 3.0 mph ENE4.8 kmh ENE 5.0 mph8.0 kmh 30.36 in1028.1 mb 0.00 in0.0 mm 0.00 in0.0 mm 0.00 in0.0 mm
07:50 PM 26.3°F-3.2°C 15.4°F-9.2°C 63% 5.0 mph ENE8.0 kmh ENE 5.0 mph8.0 kmh 30.36 in1028.1 mb 0.00 in0.0 mm 0.00 in0.0 mm 0.00 in0.0 mm
07:55 PM 26.5°F-3.1°C 15.6°F-9.1°C 63% 3.0 mph E4.8 kmh E 5.0 mph8.0 kmh 30.36 in1028.1 mb 0.00 in0.0 mm 0.00 in0.0 mm 0.00 in0.0 mm
08:00 PM 26.6°F-3.0°C 15.4°F-9.2°C 62% 3.0 mph E4.8 kmh E 5.0 mph8.0 kmh 30.36 in1028.1 mb 0.00 in0.0 mm 0.00 in0.0 mm 0.00 in0.0 mm
08:05 PM 26.6°F-3.0°C 15.4°F-9.2°C 62% 2.0 mph E3.2 kmh E 5.0 mph8.0 kmh 30.36 in1028.1 mb 0.00 in0.0 mm 0.00 in0.0 mm 0.00 in0.0 mm
08:10 PM 26.6°F-3.0°C 15.0°F-9.4°C 61% 2.0 mph E3.2 kmh E 5.0 mph8.0 kmh 30.36 in1028.1 mb 0.00 in0.0 mm 0.00 in0.0 mm 0.00 in0.0 mm
08:15 PM 26.5°F-3.1°C 14.5°F-9.7°C 60% 2.0 mph E3.2 kmh E 5.0 mph8.0 kmh 30.36 in1028.1 mb 0.00 in0.0 mm 0.00 in0.0 mm 0.00 in0.0 mm
08:20 PM 26.4°F-3.1°C 14.8°F-9.6°C 61% 2.0 mph E3.2 kmh E 3.0 mph4.8 kmh 30.36 in1028.1 mb 0.00 in0.0 mm 0.00 in0.0 mm 0.00 in0.0 mm
08:25 PM 26.3°F-3.2°C 13.9°F-10.1°C 59% 2.0 mph ESE3.2 kmh ESE 4.0 mph6.4 kmh 30.36 in1028.1 mb 0.00 in0.0 mm 0.00 in0.0 mm 0.00 in0.0 mm
08:30 PM 26.5°F-3.1°C 13.7°F-10.2°C 58% 2.0 mph ESE3.2 kmh ESE 5.0 mph8.0 kmh 30.36 in1028.1 mb 0.00 in0.0 mm 0.00 in0.0 mm 0.00 in0.0 mm
08:35 PM 26.5°F-3.1°C 13.3°F-10.4°C 57% 3.0 mph ESE4.8 kmh ESE 5.0 mph8.0 kmh 30.36 in1028.1 mb 0.00 in0.0 mm 0.00 in0.0 mm 0.00 in0.0 mm
08:40 PM 26.6°F-3.0°C 13.4°F-10.3°C 57% 1.0 mph ESE1.6 kmh ESE 7.0 mph11.3 kmh 30.36 in1028.1 mb 0.00 in0.0 mm 0.00 in0.0 mm 0.00 in0.0 mm
08:45 PM 26.7°F-2.9°C 13.5°F-10.3°C 57% 1.0 mph ESE1.6 kmh ESE 7.0 mph11.3 kmh 30.36 in1028.1 mb 0.00 in0.0 mm 0.00 in0.0 mm 0.00 in0.0 mm
08:50 PM 26.6°F-3.0°C 13.8°F-10.1°C 58% 3.0 mph ESE4.8 kmh ESE 4.0 mph6.4 kmh 30.36 in1028.1 mb 0.00 in0.0 mm 0.00 in0.0 mm 0.00 in0.0 mm
08:55 PM 26.6°F-3.0°C 14.2°F-9.9°C 59% Calm Calm 5.0 mph8.0 kmh 30.36 in1028.1 mb 0.00 in0.0 mm 0.00 in0.0 mm 0.00 in0.0 mm
09:00 PM 26.3°F-3.2°C 14.3°F-9.8°C 60% 1.0 mph ESE1.6 kmh ESE 5.0 mph8.0 kmh 30.36 in1028.1 mb 0.00 in0.0 mm 0.00 in0.0 mm 0.00 in0.0 mm
09:05 PM 26.2°F-3.2°C 15.0°F-9.4°C 62% 2.0 mph SE3.2 kmh SE 6.0 mph9.7 kmh 30.36 in1028.1 mb 0.00 in0.0 mm 0.00 in0.0 mm 0.00 in0.0 mm
09:10 PM 26.0°F-3.3°C 15.2°F-9.3°C 63% 3.0 mph E4.8 kmh E 6.0 mph9.7 kmh 30.36 in1028.1 mb 0.00 in0.0 mm 0.00 in0.0 mm 0.00 in0.0 mm
09:15 PM 25.9°F-3.4°C 15.8°F-9.0°C 65% 5.0 mph ESE8.0 kmh ESE 9.0 mph14.5 kmh 30.36 in1028.1 mb 0.00 in0.0 mm 0.00 in0.0 mm 0.00 in0.0 mm
09:20 PM 25.7°F-3.5°C 15.9°F-8.9°C 66% 2.0 mph SE3.2 kmh SE 6.0 mph9.7 kmh 30.36 in1028.1 mb 0.00 in0.0 mm 0.00 in0.0 mm 0.00 in0.0 mm
09:25 PM 25.4°F-3.7°C 16.3°F-8.7°C 68% 5.0 mph SE8.0 kmh SE 11.0 mph17.7 kmh 30.36 in1028.1 mb 0.00 in0.0 mm 0.00 in0.0 mm 0.00 in0.0 mm
09:30 PM 25.3°F-3.7°C 16.9°F-8.4°C 70% 5.0 mph ESE8.0 kmh ESE 11.0 mph17.7 kmh 30.36 in1028.1 mb 0.00 in0.0 mm 0.00 in0.0 mm 0.00 in0.0 mm
09:35 PM 25.3°F-3.7°C 17.2°F-8.2°C 71% 6.0 mph ESE9.7 kmh ESE 10.0 mph16.1 kmh 30.36 in1028.1 mb 0.00 in0.0 mm 0.00 in0.0 mm 0.00 in0.0 mm
09:40 PM 25.3°F-3.7°C 17.6°F-8.0°C 72% 6.0 mph ESE9.7 kmh ESE 11.0 mph17.7 kmh 30.36 in1028.1 mb 0.00 in0.0 mm 0.00 in0.0 mm 0.00 in0.0 mm
09:45 PM 25.3°F-3.7°C 17.6°F-8.0°C 72% 6.0 mph SSE9.7 kmh SSE 11.0 mph17.7 kmh 30.36 in1028.1 mb 0.00 in0.0 mm 0.00 in0.0 mm 0.00 in0.0 mm
09:50 PM 25.2°F-3.8°C 17.8°F-7.9°C 73% 4.0 mph ESE6.4 kmh ESE 11.0 mph17.7 kmh 30.36 in1028.1 mb 0.00 in0.0 mm 0.00 in0.0 mm 0.00 in0.0 mm
09:55 PM 25.1°F-3.8°C 17.7°F-7.9°C 73% 6.0 mph SE9.7 kmh SE 11.0 mph17.7 kmh 30.35 in1027.8 mb 0.00 in0.0 mm 0.00 in0.0 mm 0.00 in0.0 mm
10:00 PM 25.0°F-3.9°C 17.9°F-7.8°C 74% 3.0 mph SE4.8 kmh SE 11.0 mph17.7 kmh 30.36 in1028.1 mb 0.00 in0.0 mm 0.00 in0.0 mm 0.00 in0.0 mm
10:05 PM 24.9°F-3.9°C 17.8°F-7.9°C 74% 5.0 mph SE8.0 kmh SE 9.0 mph14.5 kmh 30.36 in1028.1 mb 0.00 in0.0 mm 0.00 in0.0 mm 0.00 in0.0 mm
10:10 PM 24.9°F-3.9°C 17.8°F-7.9°C 74% 4.0 mph SE6.4 kmh SE 10.0 mph16.1 kmh 30.35 in1027.8 mb 0.00 in0.0 mm 0.00 in0.0 mm 0.00 in0.0 mm
10:15 PM 24.8°F-4.0°C 18.0°F-7.8°C 75% 4.0 mph SE6.4 kmh SE 12.0 mph19.3 kmh 30.35 in1027.8 mb 0.00 in0.0 mm 0.00 in0.0 mm 0.00 in0.0 mm
10:20 PM 24.7°F-4.1°C 17.9°F-7.8°C 75% 3.0 mph SE4.8 kmh SE 7.0 mph11.3 kmh 30.35 in1027.8 mb 0.00 in0.0 mm 0.00 in0.0 mm 0.00 in0.0 mm
10:25 PM 24.7°F-4.1°C 17.9°F-7.8°C 75% 4.0 mph ESE6.4 kmh ESE 8.0 mph12.9 kmh 30.35 in1027.8 mb 0.00 in0.0 mm 0.00 in0.0 mm 0.00 in0.0 mm
10:30 PM 24.6°F-4.1°C 18.1°F-7.7°C 76% 4.0 mph SE6.4 kmh SE 8.0 mph12.9 kmh 30.35 in1027.8 mb 0.00 in0.0 mm 0.00 in0.0 mm 0.00 in0.0 mm
10:35 PM 24.6°F-4.1°C 18.1°F-7.7°C 76% 5.0 mph SE8.0 kmh SE 9.0 mph14.5 kmh 30.35 in1027.8 mb 0.00 in0.0 mm 0.00 in0.0 mm 0.00 in0.0 mm
10:40 PM 24.6°F-4.1°C 18.1°F-7.7°C 76% 5.0 mph SE8.0 kmh SE 9.0 mph14.5 kmh 30.35 in1027.8 mb 0.00 in0.0 mm 0.00 in0.0 mm 0.00 in0.0 mm
10:45 PM 24.5°F-4.2°C 18.0°F-7.8°C 76% 6.0 mph SE9.7 kmh SE 9.0 mph14.5 kmh 30.35 in1027.8 mb 0.00 in0.0 mm 0.00 in0.0 mm 0.00 in0.0 mm
10:50 PM 24.4°F-4.2°C 17.9°F-7.8°C 76% 6.0 mph SE9.7 kmh SE 9.0 mph14.5 kmh 30.35 in1027.8 mb 0.00 in0.0 mm 0.00 in0.0 mm 0.00 in0.0 mm
10:55 PM 24.3°F-4.3°C 17.8°F-7.9°C 76% 3.0 mph SSE4.8 kmh SSE 10.0 mph16.1 kmh 30.35 in1027.8 mb 0.00 in0.0 mm 0.00 in0.0 mm 0.00 in0.0 mm
11:00 PM 24.2°F-4.3°C 17.7°F-7.9°C 76% 6.0 mph SE9.7 kmh SE 10.0 mph16.1 kmh 30.34 in1027.4 mb 0.00 in0.0 mm 0.00 in0.0 mm 0.00 in0.0 mm
11:05 PM 24.1°F-4.4°C 17.6°F-8.0°C 76% 5.0 mph SE8.0 kmh SE 12.0 mph19.3 kmh 30.34 in1027.4 mb 0.00 in0.0 mm 0.00 in0.0 mm 0.00 in0.0 mm
11:10 PM 24.0°F-4.4°C 17.6°F-8.0°C 76% 3.0 mph S4.8 kmh S 12.0 mph19.3 kmh 30.34 in1027.4 mb 0.00 in0.0 mm 0.00 in0.0 mm 0.00 in0.0 mm
11:15 PM 23.9°F-4.5°C 17.5°F-8.1°C 76% 6.0 mph SE9.7 kmh SE 12.0 mph19.3 kmh 30.34 in1027.4 mb 0.00 in0.0 mm 0.00 in0.0 mm 0.00 in0.0 mm
11:20 PM 23.8°F-4.6°C 17.4°F-8.1°C 76% 1.0 mph S1.6 kmh S 8.0 mph12.9 kmh 30.34 in1027.4 mb 0.00 in0.0 mm 0.00 in0.0 mm 0.00 in0.0 mm
11:25 PM 23.7°F-4.6°C 17.3°F-8.2°C 76% 7.0 mph SE11.3 kmh SE 9.0 mph14.5 kmh 30.34 in1027.4 mb 0.00 in0.0 mm 0.00 in0.0 mm 0.00 in0.0 mm
11:30 PM 23.7°F-4.6°C 17.3°F-8.2°C 76% 6.0 mph SSE9.7 kmh SSE 9.0 mph14.5 kmh 30.34 in1027.4 mb 0.00 in0.0 mm 0.00 in0.0 mm 0.00 in0.0 mm
11:35 PM 23.6°F-4.7°C 17.2°F-8.2°C 76% 3.0 mph S4.8 kmh S 10.0 mph16.1 kmh 30.34 in1027.4 mb 0.00 in0.0 mm 0.00 in0.0 mm 0.00 in0.0 mm
11:40 PM 23.5°F-4.7°C 17.1°F-8.3°C 76% 4.0 mph SSE6.4 kmh SSE 10.0 mph16.1 kmh 30.34 in1027.4 mb 0.00 in0.0 mm 0.00 in0.0 mm 0.00 in0.0 mm
11:45 PM 23.5°F-4.7°C 17.1°F-8.3°C 76% 3.0 mph SE4.8 kmh SE 10.0 mph16.1 kmh 30.34 in1027.4 mb 0.00 in0.0 mm 0.00 in0.0 mm 0.00 in0.0 mm
11:50 PM 23.3°F-4.8°C 16.9°F-8.4°C 76% 5.0 mph S8.0 kmh S 8.0 mph12.9 kmh 30.34 in1027.4 mb 0.00 in0.0 mm 0.00 in0.0 mm 0.00 in0.0 mm
11:55 PM 23.2°F-4.9°C 17.1°F-8.3°C 77% 5.0 mph SE8.0 kmh SE 8.0 mph12.9 kmh 30.34 in1027.4 mb 0.00 in0.0 mm 0.00 in0.0 mm 0.00 in0.0 mm